sensor_id;sensor_type;location;lat;lon;timestamp;P1;durP1;ratioP1;P2;durP2;ratioP2
72601;SDS011;60644;55.858;37.390;2022-11-20T07:58:43;18.52;;;6.85;;
72601;SDS011;60644;55.858;37.390;2022-11-20T08:01:08;19.87;;;6.60;;
72601;SDS011;60644;55.858;37.390;2022-11-20T08:03:35;18.40;;;7.78;;
72601;SDS011;60644;55.858;37.390;2022-11-20T08:06:02;17.85;;;6.80;;
72601;SDS011;60644;55.858;37.390;2022-11-20T08:08:29;16.83;;;6.73;;
72601;SDS011;60644;55.858;37.390;2022-11-20T08:10:58;18.80;;;7.45;;
72601;SDS011;60644;55.858;37.390;2022-11-20T08:13:44;16.63;;;6.85;;
72601;SDS011;60644;55.858;37.390;2022-11-20T08:16:28;19.15;;;7.75;;
72601;SDS011;60644;55.858;37.390;2022-11-20T08:18:54;19.93;;;8.20;;
72601;SDS011;60644;55.858;37.390;2022-11-20T08:21:20;18.80;;;6.50;;
72601;SDS011;60644;55.858;37.390;2022-11-20T08:23:46;18.30;;;7.60;;
72601;SDS011;60644;55.858;37.390;2022-11-20T08:26:12;22.00;;;7.83;;
72601;SDS011;60644;55.858;37.390;2022-11-20T08:28:38;18.77;;;7.75;;
72601;SDS011;60644;55.858;37.390;2022-11-20T08:31:04;19.45;;;7.70;;
72601;SDS011;60644;55.858;37.390;2022-11-20T08:33:30;17.33;;;7.70;;
72601;SDS011;60644;55.858;37.390;2022-11-20T08:36:01;18.70;;;7.07;;
72601;SDS011;60644;55.858;37.390;2022-11-20T08:38:29;19.67;;;7.88;;
72601;SDS011;60644;55.858;37.390;2022-11-20T08:40:56;20.75;;;8.05;;
72601;SDS011;60644;55.858;37.390;2022-11-20T08:43:45;15.97;;;7.17;;
72601;SDS011;60644;55.858;37.390;2022-11-20T08:46:11;17.25;;;7.35;;
72601;SDS011;60644;55.858;37.390;2022-11-20T08:48:37;20.42;;;7.88;;
72601;SDS011;60644;55.858;37.390;2022-11-20T08:51:03;19.63;;;7.22;;
72601;SDS011;60644;55.858;37.390;2022-11-20T08:53:30;18.35;;;6.90;;
72601;SDS011;60644;55.858;37.390;2022-11-20T08:55:58;18.58;;;8.05;;
72601;SDS011;60644;55.858;37.390;2022-11-20T08:58:24;19.65;;;8.38;;
72601;SDS011;60644;55.858;37.390;2022-11-20T09:00:51;18.30;;;8.10;;
72601;SDS011;60644;55.858;37.390;2022-11-20T09:03:17;22.23;;;9.25;;
72601;SDS011;60644;55.858;37.390;2022-11-20T09:05:43;21.70;;;8.15;;
72601;SDS011;60644;55.858;37.390;2022-11-20T09:08:09;20.73;;;8.17;;
72601;SDS011;60644;55.858;37.390;2022-11-20T09:10:34;21.17;;;8.18;;
72601;SDS011;60644;55.858;37.390;2022-11-20T09:13:02;20.20;;;7.78;;
72601;SDS011;60644;55.858;37.390;2022-11-20T09:15:27;26.25;;;8.77;;
72601;SDS011;60644;55.858;37.390;2022-11-20T09:17:54;22.43;;;8.20;;
72601;SDS011;60644;55.858;37.390;2022-11-20T09:20:21;24.42;;;9.65;;
72601;SDS011;60644;55.858;37.390;2022-11-20T09:22:47;21.30;;;8.60;;
72601;SDS011;60644;55.858;37.390;2022-11-20T09:25:13;23.60;;;10.20;;
72601;SDS011;60644;55.858;37.390;2022-11-20T09:27:39;20.40;;;8.10;;
72601;SDS011;60644;55.858;37.390;2022-11-20T09:30:06;23.17;;;9.02;;
72601;SDS011;60644;55.858;37.390;2022-11-20T09:32:33;23.13;;;9.05;;
72601;SDS011;60644;55.858;37.390;2022-11-20T09:34:58;25.35;;;9.00;;
72601;SDS011;60644;55.858;37.390;2022-11-20T09:37:24;21.10;;;8.80;;
72601;SDS011;60644;55.858;37.390;2022-11-20T09:39:50;20.73;;;8.23;;
72601;SDS011;60644;55.858;37.390;2022-11-20T09:51:46;33.10;;;13.13;;
72601;SDS011;60644;55.858;37.390;2022-11-20T09:54:18;30.42;;;11.50;;
72601;SDS011;60644;55.858;37.390;2022-11-20T09:56:48;30.00;;;10.75;;
72601;SDS011;60644;55.858;37.390;2022-11-20T09:59:36;30.05;;;10.98;;
72601;SDS011;60644;55.858;37.390;2022-11-20T10:04:52;35.03;;;12.27;;
72601;SDS011;60644;55.858;37.390;2022-11-20T10:07:29;23.40;;;9.63;;
72601;SDS011;60644;55.858;37.390;2022-11-20T10:10:01;29.00;;;12.02;;
72601;SDS011;60644;55.858;37.390;2022-11-20T10:12:40;27.17;;;10.43;;
72601;SDS011;60644;55.858;37.390;2022-11-20T10:18:52;25.00;;;10.20;;
72601;SDS011;60644;55.858;37.390;2022-11-20T10:29:46;24.30;;;9.35;;
72601;SDS011;60644;55.858;37.390;2022-11-20T10:32:16;21.60;;;8.07;;
72601;SDS011;60644;55.858;37.390;2022-11-20T10:34:53;28.30;;;10.48;;
72601;SDS011;60644;55.858;37.390;2022-11-20T10:37:41;22.73;;;9.27;;
72601;SDS011;60644;55.858;37.390;2022-11-20T10:42:54;24.60;;;9.10;;
72601;SDS011;60644;55.858;37.390;2022-11-20T10:50:36;21.27;;;9.55;;
72601;SDS011;60644;55.858;37.390;2022-11-20T10:56:16;22.95;;;9.93;;
72601;SDS011;60644;55.858;37.390;2022-11-20T11:01:53;20.13;;;7.10;;
72601;SDS011;60644;55.858;37.390;2022-11-20T11:04:30;20.50;;;8.40;;
72601;SDS011;60644;55.858;37.390;2022-11-20T11:07:10;17.10;;;6.90;;
72601;SDS011;60644;55.858;37.390;2022-11-20T11:09:44;18.40;;;6.60;;
72601;SDS011;60644;55.858;37.390;2022-11-20T11:12:14;20.42;;;6.78;;
72601;SDS011;60644;55.858;37.390;2022-11-20T11:14:41;15.70;;;5.47;;
72601;SDS011;60644;55.858;37.390;2022-11-20T11:17:23;18.42;;;7.00;;
72601;SDS011;60644;55.858;37.390;2022-11-20T11:22:30;14.47;;;6.23;;
72601;SDS011;60644;55.858;37.390;2022-11-20T11:24:57;16.08;;;6.15;;
72601;SDS011;60644;55.858;37.390;2022-11-20T11:27:24;15.93;;;6.15;;
72601;SDS011;60644;55.858;37.390;2022-11-20T11:29:50;13.48;;;5.00;;
72601;SDS011;60644;55.858;37.390;2022-11-20T11:32:29;15.13;;;5.55;;
72601;SDS011;60644;55.858;37.390;2022-11-20T11:37:26;14.77;;;5.63;;
72601;SDS011;60644;55.858;37.390;2022-11-20T11:40:00;16.13;;;4.72;;
72601;SDS011;60644;55.858;37.390;2022-11-20T11:42:26;14.20;;;5.35;;
72601;SDS011;60644;55.858;37.390;2022-11-20T11:44:53;15.70;;;5.93;;
72601;SDS011;60644;55.858;37.390;2022-11-20T11:47:32;14.35;;;5.13;;
72601;SDS011;60644;55.858;37.390;2022-11-20T11:50:02;12.65;;;4.78;;
72601;SDS011;60644;55.858;37.390;2022-11-20T11:53:19;12.25;;;5.13;;
72601;SDS011;60644;55.858;37.390;2022-11-20T11:55:40;16.42;;;5.50;;
72601;SDS011;60644;55.858;37.390;2022-11-20T11:58:22;13.53;;;6.40;;
72601;SDS011;60644;55.858;37.390;2022-11-20T12:00:54;14.15;;;5.40;;
72601;SDS011;60644;55.858;37.390;2022-11-20T12:03:42;14.35;;;5.28;;
72601;SDS011;60644;55.858;37.390;2022-11-20T12:06:14;14.00;;;5.38;;
72601;SDS011;60644;55.858;37.390;2022-11-20T12:09:15;14.52;;;5.63;;
72601;SDS011;60644;55.858;37.390;2022-11-20T12:12:02;15.70;;;5.67;;
72601;SDS011;60644;55.858;37.390;2022-11-20T12:14:33;14.38;;;5.60;;
72601;SDS011;60644;55.858;37.390;2022-11-20T12:17:02;16.73;;;7.00;;
72601;SDS011;60644;55.858;37.390;2022-11-20T12:19:33;14.85;;;5.35;;
72601;SDS011;60644;55.858;37.390;2022-11-20T12:30:12;14.40;;;5.25;;
72601;SDS011;60644;55.858;37.390;2022-11-20T12:43:24;16.10;;;6.00;;
72601;SDS011;60644;55.858;37.390;2022-11-20T12:52:04;13.67;;;5.83;;
72601;SDS011;60644;55.858;37.390;2022-11-20T13:00:11;15.10;;;6.22;;
72601;SDS011;60644;55.858;37.390;2022-11-20T13:02:52;16.70;;;6.97;;
72601;SDS011;60644;55.858;37.390;2022-11-20T13:08:32;18.13;;;6.60;;
72601;SDS011;60644;55.858;37.390;2022-11-20T13:16:45;16.02;;;5.90;;
72601;SDS011;60644;55.858;37.390;2022-11-20T13:19:16;15.00;;;5.20;;
72601;SDS011;60644;55.858;37.390;2022-11-20T13:21:44;15.02;;;5.53;;
72601;SDS011;60644;55.858;37.390;2022-11-20T13:29:41;15.80;;;5.43;;
72601;SDS011;60644;55.858;37.390;2022-11-20T13:34:38;17.27;;;7.50;;
72601;SDS011;60644;55.858;37.390;2022-11-20T13:37:04;18.65;;;5.80;;
72601;SDS011;60644;55.858;37.390;2022-11-20T13:39:34;15.27;;;5.47;;
72601;SDS011;60644;55.858;37.390;2022-11-20T13:42:03;13.02;;;5.63;;
72601;SDS011;60644;55.858;37.390;2022-11-20T13:44:54;13.02;;;4.80;;
72601;SDS011;60644;55.858;37.390;2022-11-20T13:47:24;12.98;;;4.90;;
72601;SDS011;60644;55.858;37.390;2022-11-20T13:49:52;15.52;;;6.65;;
72601;SDS011;60644;55.858;37.390;2022-11-20T13:55:11;15.32;;;6.30;;
72601;SDS011;60644;55.858;37.390;2022-11-20T14:00:43;14.30;;;5.88;;
72601;SDS011;60644;55.858;37.390;2022-11-20T14:03:22;13.43;;;5.88;;
72601;SDS011;60644;55.858;37.390;2022-11-20T14:06:01;16.60;;;6.27;;
72601;SDS011;60644;55.858;37.390;2022-11-20T14:08:42;16.27;;;6.78;;
72601;SDS011;60644;55.858;37.390;2022-11-20T14:11:14;17.00;;;6.82;;
72601;SDS011;60644;55.858;37.390;2022-11-20T14:14:22;15.43;;;5.82;;
72601;SDS011;60644;55.858;37.390;2022-11-20T14:16:47;15.32;;;6.53;;
72601;SDS011;60644;55.858;37.390;2022-11-20T14:19:22;15.77;;;6.30;;
72601;SDS011;60644;55.858;37.390;2022-11-20T14:22:07;15.68;;;6.78;;
72601;SDS011;60644;55.858;37.390;2022-11-20T14:24:33;16.42;;;6.70;;
72601;SDS011;60644;55.858;37.390;2022-11-20T14:26:59;17.02;;;6.47;;
72601;SDS011;60644;55.858;37.390;2022-11-20T14:29:34;15.23;;;7.20;;
72601;SDS011;60644;55.858;37.390;2022-11-20T14:32:01;15.73;;;5.85;;
72601;SDS011;60644;55.858;37.390;2022-11-20T14:34:29;16.08;;;6.57;;
72601;SDS011;60644;55.858;37.390;2022-11-20T14:37:01;14.18;;;5.85;;
72601;SDS011;60644;55.858;37.390;2022-11-20T14:39:36;18.90;;;6.90;;
72601;SDS011;60644;55.858;37.390;2022-11-20T14:42:15;18.75;;;7.97;;
72601;SDS011;60644;55.858;37.390;2022-11-20T14:44:42;14.45;;;6.05;;
72601;SDS011;60644;55.858;37.390;2022-11-20T14:47:10;16.83;;;6.93;;
72601;SDS011;60644;55.858;37.390;2022-11-20T14:49:38;15.32;;;6.90;;
72601;SDS011;60644;55.858;37.390;2022-11-20T14:52:13;16.53;;;5.73;;
72601;SDS011;60644;55.858;37.390;2022-11-20T14:54:53;16.38;;;6.85;;
72601;SDS011;60644;55.858;37.390;2022-11-20T14:57:25;15.98;;;6.13;;
72601;SDS011;60644;55.858;37.390;2022-11-20T15:00:18;13.90;;;5.60;;
72601;SDS011;60644;55.858;37.390;2022-11-20T15:02:46;16.73;;;6.03;;
72601;SDS011;60644;55.858;37.390;2022-11-20T15:05:13;15.83;;;6.87;;
72601;SDS011;60644;55.858;37.390;2022-11-20T15:07:47;17.33;;;7.18;;
72601;SDS011;60644;55.858;37.390;2022-11-20T15:10:25;17.90;;;6.78;;
72601;SDS011;60644;55.858;37.390;2022-11-20T15:12:53;13.70;;;5.55;;
72601;SDS011;60644;55.858;37.390;2022-11-20T15:15:32;13.55;;;6.18;;
72601;SDS011;60644;55.858;37.390;2022-11-20T15:18:02;15.07;;;6.47;;
72601;SDS011;60644;55.858;37.390;2022-11-20T15:20:30;15.20;;;6.03;;
72601;SDS011;60644;55.858;37.390;2022-11-20T15:22:57;12.82;;;5.55;;
72601;SDS011;60644;55.858;37.390;2022-11-20T15:25:23;15.80;;;6.05;;
72601;SDS011;60644;55.858;37.390;2022-11-20T15:27:54;15.80;;;6.20;;
72601;SDS011;60644;55.858;37.390;2022-11-20T15:30:21;14.55;;;6.00;;
72601;SDS011;60644;55.858;37.390;2022-11-20T15:32:48;16.55;;;6.10;;
72601;SDS011;60644;55.858;37.390;2022-11-20T15:35:14;16.50;;;6.70;;
72601;SDS011;60644;55.858;37.390;2022-11-20T15:37:41;18.23;;;6.57;;
72601;SDS011;60644;55.858;37.390;2022-11-20T15:40:07;14.47;;;6.33;;
72601;SDS011;60644;55.858;37.390;2022-11-20T15:42:34;19.08;;;7.25;;
72601;SDS011;60644;55.858;37.390;2022-11-20T15:45:00;14.45;;;6.68;;
72601;SDS011;60644;55.858;37.390;2022-11-20T15:47:30;15.70;;;6.55;;
72601;SDS011;60644;55.858;37.390;2022-11-20T15:49:58;16.92;;;6.38;;
72601;SDS011;60644;55.858;37.390;2022-11-20T15:52:24;14.73;;;6.17;;
72601;SDS011;60644;55.858;37.390;2022-11-20T15:54:50;18.67;;;7.45;;
72601;SDS011;60644;55.858;37.390;2022-11-20T15:57:16;16.25;;;6.47;;
72601;SDS011;60644;55.858;37.390;2022-11-20T15:59:42;14.53;;;6.70;;
72601;SDS011;60644;55.858;37.390;2022-11-20T16:02:09;20.38;;;7.90;;
72601;SDS011;60644;55.858;37.390;2022-11-20T16:04:36;13.90;;;5.78;;
72601;SDS011;60644;55.858;37.390;2022-11-20T16:07:02;14.38;;;6.15;;
72601;SDS011;60644;55.858;37.390;2022-11-20T16:09:28;16.67;;;6.83;;
72601;SDS011;60644;55.858;37.390;2022-11-20T16:11:54;15.90;;;6.15;;
72601;SDS011;60644;55.858;37.390;2022-11-20T16:14:23;16.63;;;6.57;;
72601;SDS011;60644;55.858;37.390;2022-11-20T16:17:08;15.40;;;6.57;;
72601;SDS011;60644;55.858;37.390;2022-11-20T16:19:34;16.23;;;7.83;;
72601;SDS011;60644;55.858;37.390;2022-11-20T16:22:00;17.17;;;7.43;;
72601;SDS011;60644;55.858;37.390;2022-11-20T16:24:27;18.98;;;6.90;;
72601;SDS011;60644;55.858;37.390;2022-11-20T16:26:54;15.50;;;6.43;;
72601;SDS011;60644;55.858;37.390;2022-11-20T16:29:20;17.83;;;6.15;;
72601;SDS011;60644;55.858;37.390;2022-11-20T16:31:47;15.30;;;6.20;;
72601;SDS011;60644;55.858;37.390;2022-11-20T16:34:15;16.67;;;6.72;;
72601;SDS011;60644;55.858;37.390;2022-11-20T16:36:42;17.17;;;6.82;;
72601;SDS011;60644;55.858;37.390;2022-11-20T16:39:10;19.15;;;7.43;;
72601;SDS011;60644;55.858;37.390;2022-11-20T16:41:37;15.90;;;7.05;;
72601;SDS011;60644;55.858;37.390;2022-11-20T16:44:08;17.27;;;6.63;;
72601;SDS011;60644;55.858;37.390;2022-11-20T16:46:37;15.07;;;6.40;;
72601;SDS011;60644;55.858;37.390;2022-11-20T16:49:05;15.30;;;5.80;;
72601;SDS011;60644;55.858;37.390;2022-11-20T16:51:36;19.13;;;8.15;;
72601;SDS011;60644;55.858;37.390;2022-11-20T16:54:02;20.40;;;7.55;;
72601;SDS011;60644;55.858;37.390;2022-11-20T16:56:30;16.77;;;6.57;;
72601;SDS011;60644;55.858;37.390;2022-11-20T16:58:58;17.08;;;6.85;;
72601;SDS011;60644;55.858;37.390;2022-11-20T17:01:25;15.35;;;6.20;;
72601;SDS011;60644;55.858;37.390;2022-11-20T17:04:01;17.58;;;7.15;;
72601;SDS011;60644;55.858;37.390;2022-11-20T17:06:30;17.83;;;6.63;;
72601;SDS011;60644;55.858;37.390;2022-11-20T17:09:01;16.07;;;7.00;;
72601;SDS011;60644;55.858;37.390;2022-11-20T17:11:28;13.93;;;6.20;;
72601;SDS011;60644;55.858;37.390;2022-11-20T17:13:55;18.58;;;7.30;;
72601;SDS011;60644;55.858;37.390;2022-11-20T17:16:22;16.00;;;6.15;;
72601;SDS011;60644;55.858;37.390;2022-11-20T17:18:56;15.13;;;5.97;;
72601;SDS011;60644;55.858;37.390;2022-11-20T17:21:23;18.33;;;6.60;;
72601;SDS011;60644;55.858;37.390;2022-11-20T17:23:51;16.35;;;6.70;;
72601;SDS011;60644;55.858;37.390;2022-11-20T17:26:18;18.05;;;7.18;;
72601;SDS011;60644;55.858;37.390;2022-11-20T17:28:53;16.63;;;6.63;;
72601;SDS011;60644;55.858;37.390;2022-11-20T17:31:20;14.63;;;6.47;;
72601;SDS011;60644;55.858;37.390;2022-11-20T17:33:47;19.17;;;8.40;;
72601;SDS011;60644;55.858;37.390;2022-11-20T17:36:14;19.20;;;9.05;;
72601;SDS011;60644;55.858;37.390;2022-11-20T17:38:41;15.68;;;6.15;;
72601;SDS011;60644;55.858;37.390;2022-11-20T17:41:09;21.40;;;7.97;;
72601;SDS011;60644;55.858;37.390;2022-11-20T17:43:37;20.70;;;9.93;;
72601;SDS011;60644;55.858;37.390;2022-11-20T17:46:04;19.57;;;8.17;;
72601;SDS011;60644;55.858;37.390;2022-11-20T17:48:31;17.15;;;7.70;;
72601;SDS011;60644;55.858;37.390;2022-11-20T17:50:59;17.23;;;8.13;;
72601;SDS011;60644;55.858;37.390;2022-11-20T17:53:26;18.50;;;7.95;;
72601;SDS011;60644;55.858;37.390;2022-11-20T17:55:56;18.92;;;7.80;;
72601;SDS011;60644;55.858;37.390;2022-11-20T17:58:41;18.10;;;8.23;;
72601;SDS011;60644;55.858;37.390;2022-11-20T18:01:07;16.73;;;7.18;;
72601;SDS011;60644;55.858;37.390;2022-11-20T18:03:34;18.63;;;7.78;;
72601;SDS011;60644;55.858;37.390;2022-11-20T18:06:07;16.55;;;6.82;;
72601;SDS011;60644;55.858;37.390;2022-11-20T18:08:35;18.25;;;7.32;;
72601;SDS011;60644;55.858;37.390;2022-11-20T18:11:08;20.13;;;7.47;;
72601;SDS011;60644;55.858;37.390;2022-11-20T18:13:38;20.55;;;8.00;;
72601;SDS011;60644;55.858;37.390;2022-11-20T18:16:24;18.48;;;7.80;;
72601;SDS011;60644;55.858;37.390;2022-11-20T18:18:52;18.23;;;6.72;;
72601;SDS011;60644;55.858;37.390;2022-11-20T18:21:20;14.35;;;6.63;;
72601;SDS011;60644;55.858;37.390;2022-11-20T18:23:46;15.90;;;6.90;;
72601;SDS011;60644;55.858;37.390;2022-11-20T18:26:12;16.02;;;6.63;;
72601;SDS011;60644;55.858;37.390;2022-11-20T18:28:39;17.77;;;6.90;;
72601;SDS011;60644;55.858;37.390;2022-11-20T18:31:06;16.65;;;6.40;;
72601;SDS011;60644;55.858;37.390;2022-11-20T18:33:33;17.03;;;7.30;;
72601;SDS011;60644;55.858;37.390;2022-11-20T18:38:39;16.40;;;6.63;;
72601;SDS011;60644;55.858;37.390;2022-11-20T18:41:10;14.40;;;6.78;;
72601;SDS011;60644;55.858;37.390;2022-11-20T18:43:56;17.70;;;6.93;;
72601;SDS011;60644;55.858;37.390;2022-11-20T18:46:41;15.23;;;6.43;;
72601;SDS011;60644;55.858;37.390;2022-11-20T18:49:08;14.70;;;5.53;;
72601;SDS011;60644;55.858;37.390;2022-11-20T18:51:34;15.27;;;6.93;;
72601;SDS011;60644;55.858;37.390;2022-11-20T18:54:01;15.93;;;7.15;;
72601;SDS011;60644;55.858;37.390;2022-11-20T18:56:28;16.55;;;6.97;;
72601;SDS011;60644;55.858;37.390;2022-11-20T18:58:53;17.10;;;7.20;;
72601;SDS011;60644;55.858;37.390;2022-11-20T19:01:19;17.08;;;7.60;;
72601;SDS011;60644;55.858;37.390;2022-11-20T19:03:45;16.73;;;6.97;;
72601;SDS011;60644;55.858;37.390;2022-11-20T19:06:12;12.43;;;4.15;;
72601;SDS011;60644;55.858;37.390;2022-11-20T19:08:38;15.52;;;6.78;;
72601;SDS011;60644;55.858;37.390;2022-11-20T19:11:05;17.65;;;6.95;;
72601;SDS011;60644;55.858;37.390;2022-11-20T19:13:32;16.40;;;6.80;;
72601;SDS011;60644;55.858;37.390;2022-11-20T19:16:03;14.90;;;6.37;;
72601;SDS011;60644;55.858;37.390;2022-11-20T19:18:39;16.15;;;6.72;;
72601;SDS011;60644;55.858;37.390;2022-11-20T19:21:12;15.23;;;6.13;;
72601;SDS011;60644;55.858;37.390;2022-11-20T19:23:39;14.70;;;6.28;;
72601;SDS011;60644;55.858;37.390;2022-11-20T19:26:06;14.70;;;5.97;;
72601;SDS011;60644;55.858;37.390;2022-11-20T19:28:32;16.23;;;6.73;;
72601;SDS011;60644;55.858;37.390;2022-11-20T19:31:03;21.75;;;8.50;;
72601;SDS011;60644;55.858;37.390;2022-11-20T19:33:30;15.93;;;6.30;;
72601;SDS011;60644;55.858;37.390;2022-11-20T19:36:06;12.30;;;5.22;;
72601;SDS011;60644;55.858;37.390;2022-11-20T19:38:44;12.05;;;5.57;;
72601;SDS011;60644;55.858;37.390;2022-11-20T19:41:12;11.30;;;4.50;;
72601;SDS011;60644;55.858;37.390;2022-11-20T19:43:42;11.73;;;4.65;;
72601;SDS011;60644;55.858;37.390;2022-11-20T19:46:08;12.93;;;5.05;;
72601;SDS011;60644;55.858;37.390;2022-11-20T19:48:34;15.35;;;4.85;;
72601;SDS011;60644;55.858;37.390;2022-11-20T19:51:12;12.68;;;5.18;;
72601;SDS011;60644;55.858;37.390;2022-11-20T19:53:38;10.87;;;3.67;;
72601;SDS011;60644;55.858;37.390;2022-11-20T19:56:05;11.68;;;4.18;;
72601;SDS011;60644;55.858;37.390;2022-11-20T19:58:31;12.80;;;5.05;;
72601;SDS011;60644;55.858;37.390;2022-11-20T20:01:04;15.98;;;5.53;;
72601;SDS011;60644;55.858;37.390;2022-11-20T20:03:41;11.00;;;4.57;;
72601;SDS011;60644;55.858;37.390;2022-11-20T20:06:15;16.73;;;6.20;;
72601;SDS011;60644;55.858;37.390;2022-11-20T20:08:43;15.68;;;5.22;;
72601;SDS011;60644;55.858;37.390;2022-11-20T20:11:17;14.32;;;6.30;;
72601;SDS011;60644;55.858;37.390;2022-11-20T20:13:44;13.47;;;5.43;;
72601;SDS011;60644;55.858;37.390;2022-11-20T20:16:15;14.60;;;4.57;;
72601;SDS011;60644;55.858;37.390;2022-11-20T20:18:42;15.40;;;6.03;;
72601;SDS011;60644;55.858;37.390;2022-11-20T20:21:13;19.75;;;7.15;;
72601;SDS011;60644;55.858;37.390;2022-11-20T20:23:44;17.10;;;7.38;;
72601;SDS011;60644;55.858;37.390;2022-11-20T20:26:10;17.00;;;6.57;;
72601;SDS011;60644;55.858;37.390;2022-11-20T20:28:36;17.67;;;6.40;;
72601;SDS011;60644;55.858;37.390;2022-11-20T20:31:09;18.63;;;6.45;;
72601;SDS011;60644;55.858;37.390;2022-11-20T20:33:37;18.52;;;6.38;;
72601;SDS011;60644;55.858;37.390;2022-11-20T20:36:04;17.90;;;6.13;;
72601;SDS011;60644;55.858;37.390;2022-11-20T20:38:32;17.37;;;5.97;;
72601;SDS011;60644;55.858;37.390;2022-11-20T20:40:57;16.40;;;5.95;;
72601;SDS011;60644;55.858;37.390;2022-11-20T20:43:23;16.35;;;6.25;;
72601;SDS011;60644;55.858;37.390;2022-11-20T20:45:49;18.38;;;6.22;;
72601;SDS011;60644;55.858;37.390;2022-11-20T20:48:17;15.90;;;6.37;;
72601;SDS011;60644;55.858;37.390;2022-11-20T20:50:54;22.42;;;7.32;;
72601;SDS011;60644;55.858;37.390;2022-11-20T20:53:21;21.27;;;7.13;;
72601;SDS011;60644;55.858;37.390;2022-11-20T20:55:57;18.88;;;6.63;;
72601;SDS011;60644;55.858;37.390;2022-11-20T20:58:25;19.77;;;8.18;;
72601;SDS011;60644;55.858;37.390;2022-11-20T21:00:52;16.77;;;6.77;;
72601;SDS011;60644;55.858;37.390;2022-11-20T21:03:19;20.33;;;8.98;;
72601;SDS011;60644;55.858;37.390;2022-11-20T21:05:45;17.77;;;6.90;;
72601;SDS011;60644;55.858;37.390;2022-11-20T21:08:19;21.50;;;8.35;;
72601;SDS011;60644;55.858;37.390;2022-11-20T21:10:48;17.35;;;6.75;;
72601;SDS011;60644;55.858;37.390;2022-11-20T21:13:15;14.33;;;5.23;;
72601;SDS011;60644;55.858;37.390;2022-11-20T21:15:42;16.77;;;6.53;;
72601;SDS011;60644;55.858;37.390;2022-11-20T21:18:11;16.35;;;5.38;;
72601;SDS011;60644;55.858;37.390;2022-11-20T21:20:40;23.77;;;8.43;;
72601;SDS011;60644;55.858;37.390;2022-11-20T21:23:24;20.27;;;7.40;;
72601;SDS011;60644;55.858;37.390;2022-11-20T21:25:50;15.15;;;5.82;;
72601;SDS011;60644;55.858;37.390;2022-11-20T21:28:16;20.35;;;7.13;;
72601;SDS011;60644;55.858;37.390;2022-11-20T21:30:42;25.03;;;8.63;;
72601;SDS011;60644;55.858;37.390;2022-11-20T21:33:08;22.42;;;7.50;;
72601;SDS011;60644;55.858;37.390;2022-11-20T21:35:33;18.60;;;7.40;;
72601;SDS011;60644;55.858;37.390;2022-11-20T21:37:59;20.02;;;7.88;;
72601;SDS011;60644;55.858;37.390;2022-11-20T21:40:25;17.98;;;6.32;;
72601;SDS011;60644;55.858;37.390;2022-11-20T21:42:52;15.10;;;4.80;;
72601;SDS011;60644;55.858;37.390;2022-11-20T21:45:18;18.00;;;6.53;;
72601;SDS011;60644;55.858;37.390;2022-11-20T21:47:44;14.77;;;5.32;;
72601;SDS011;60644;55.858;37.390;2022-11-20T21:50:12;17.13;;;5.77;;
72601;SDS011;60644;55.858;37.390;2022-11-20T21:52:38;18.83;;;6.50;;
72601;SDS011;60644;55.858;37.390;2022-11-20T21:55:04;16.10;;;6.00;;
72601;SDS011;60644;55.858;37.390;2022-11-20T21:57:33;19.35;;;6.25;;
72601;SDS011;60644;55.858;37.390;2022-11-20T22:00:00;18.48;;;7.05;;
72601;SDS011;60644;55.858;37.390;2022-11-20T22:02:28;20.57;;;6.63;;
72601;SDS011;60644;55.858;37.390;2022-11-20T22:04:54;18.38;;;6.60;;
72601;SDS011;60644;55.858;37.390;2022-11-20T22:07:20;18.45;;;6.65;;
72601;SDS011;60644;55.858;37.390;2022-11-20T22:09:46;18.27;;;6.80;;
72601;SDS011;60644;55.858;37.390;2022-11-20T22:12:12;20.23;;;7.05;;
72601;SDS011;60644;55.858;37.390;2022-11-20T22:14:41;18.25;;;5.80;;
72601;SDS011;60644;55.858;37.390;2022-11-20T22:17:10;14.95;;;5.43;;
72601;SDS011;60644;55.858;37.390;2022-11-20T22:19:38;12.63;;;4.83;;
72601;SDS011;60644;55.858;37.390;2022-11-20T22:22:04;14.35;;;5.93;;
72601;SDS011;60644;55.858;37.390;2022-11-20T22:24:30;17.52;;;5.90;;
72601;SDS011;60644;55.858;37.390;2022-11-20T22:26:56;14.87;;;5.87;;
72601;SDS011;60644;55.858;37.390;2022-11-20T22:29:22;17.20;;;6.22;;
72601;SDS011;60644;55.858;37.390;2022-11-20T22:31:51;17.13;;;7.15;;
72601;SDS011;60644;55.858;37.390;2022-11-20T22:34:17;13.37;;;5.43;;
72601;SDS011;60644;55.858;37.390;2022-11-20T22:36:43;15.95;;;6.45;;
72601;SDS011;60644;55.858;37.390;2022-11-20T22:39:09;16.88;;;6.05;;
72601;SDS011;60644;55.858;37.390;2022-11-20T22:41:35;17.53;;;6.03;;
72601;SDS011;60644;55.858;37.390;2022-11-20T22:44:02;15.52;;;5.57;;
72601;SDS011;60644;55.858;37.390;2022-11-20T22:46:30;17.55;;;6.38;;
72601;SDS011;60644;55.858;37.390;2022-11-20T22:48:59;15.77;;;6.18;;
72601;SDS011;60644;55.858;37.390;2022-11-20T22:51:27;15.93;;;5.80;;
72601;SDS011;60644;55.858;37.390;2022-11-20T22:53:54;12.40;;;4.00;;
72601;SDS011;60644;55.858;37.390;2022-11-20T22:56:20;14.63;;;6.28;;
72601;SDS011;60644;55.858;37.390;2022-11-20T22:58:47;15.85;;;6.07;;
72601;SDS011;60644;55.858;37.390;2022-11-20T23:01:15;16.70;;;6.30;;
72601;SDS011;60644;55.858;37.390;2022-11-20T23:03:46;13.32;;;5.35;;
72601;SDS011;60644;55.858;37.390;2022-11-20T23:06:13;15.85;;;6.38;;
72601;SDS011;60644;55.858;37.390;2022-11-20T23:08:40;15.27;;;5.70;;
72601;SDS011;60644;55.858;37.390;2022-11-20T23:11:08;14.60;;;5.75;;
72601;SDS011;60644;55.858;37.390;2022-11-20T23:13:38;19.03;;;6.30;;
72601;SDS011;60644;55.858;37.390;2022-11-20T23:16:08;18.15;;;6.78;;
72601;SDS011;60644;55.858;37.390;2022-11-20T23:18:36;16.17;;;5.85;;
72601;SDS011;60644;55.858;37.390;2022-11-20T23:21:03;19.10;;;6.35;;
72601;SDS011;60644;55.858;37.390;2022-11-20T23:23:30;17.75;;;6.97;;
72601;SDS011;60644;55.858;37.390;2022-11-20T23:25:58;17.10;;;5.73;;
72601;SDS011;60644;55.858;37.390;2022-11-20T23:28:26;17.38;;;6.00;;
72601;SDS011;60644;55.858;37.390;2022-11-20T23:30:52;18.10;;;7.32;;
72601;SDS011;60644;55.858;37.390;2022-11-20T23:33:17;16.83;;;5.33;;
72601;SDS011;60644;55.858;37.390;2022-11-20T23:35:46;16.00;;;6.22;;
72601;SDS011;60644;55.858;37.390;2022-11-20T23:38:12;17.33;;;6.73;;
72601;SDS011;60644;55.858;37.390;2022-11-20T23:40:38;17.60;;;6.15;;
72601;SDS011;60644;55.858;37.390;2022-11-20T23:43:04;18.40;;;6.78;;
72601;SDS011;60644;55.858;37.390;2022-11-20T23:45:46;16.57;;;5.60;;
72601;SDS011;60644;55.858;37.390;2022-11-20T23:48:16;18.80;;;6.32;;
72601;SDS011;60644;55.858;37.390;2022-11-20T23:50:43;17.00;;;6.40;;
72601;SDS011;60644;55.858;37.390;2022-11-20T23:53:10;14.25;;;4.93;;
72601;SDS011;60644;55.858;37.390;2022-11-20T23:55:37;20.10;;;6.18;;
72601;SDS011;60644;55.858;37.390;2022-11-20T23:58:03;18.10;;;6.90;;
